Time;durP1;ratioP1;P1;durP2;ratioP2;P2;SDS_P1;SDS_P2;PMS_P1;PMS_P2;Temp;Humidity;BMP_temperature;BMP_pressure;BME280_temperature;BME280_humidity;BME280_pressure;Samples;Min_cycle;Max_cycle;Signal;HPM_P1;HPM_P2
2021/11/28 00:01:43;;;;;;;140.23;108.38;;;;;;;3.77;72.93;96843.91;5055306;28;20082;-50
2021/11/28 00:04:10;;;;;;;411.20;291.67;;;;;;;3.96;73.37;96844.06;5055282;28;20075;-50
2021/11/28 00:06:37;;;;;;;22.10;13.88;;;;;;;4.31;72.91;96849.78;5055254;28;20526;-50
2021/11/28 00:11:43;;;;;;;28.60;19.17;;;;;;;4.92;71.23;96855.47;5055185;28;20414;-50
2021/11/28 00:14:11;;;;;;;13.65;8.18;;;;;;;5.08;70.96;96862.75;5055140;28;20031;-50
2021/11/28 00:16:37;;;;;;;12.68;6.45;;;;;;;5.04;70.43;96860.81;5055071;28;20424;-50
2021/11/28 00:19:04;;;;;;;11.35;6.15;;;;;;;5.16;70.96;96866.91;5054927;28;20021;-48
2021/11/28 00:21:31;;;;;;;14.43;6.50;;;;;;;5.27;71.59;96870.63;5054968;28;20395;-50
2021/11/28 00:23:57;;;;;;;14.63;8.27;;;;;;;5.37;71.00;96863.16;5054903;28;20031;-50
2021/11/28 00:26:23;;;;;;;16.55;11.05;;;;;;;5.32;71.35;96861.19;5054886;28;20032;-48
2021/11/28 00:28:49;;;;;;;10.55;6.47;;;;;;;5.29;71.71;96863.41;5054898;28;20108;-48
2021/11/28 00:31:15;;;;;;;12.35;6.18;;;;;;;5.23;72.23;96862.44;5051279;28;20037;-50
2021/11/28 00:33:41;;;;;;;14.13;6.57;;;;;;;5.22;72.30;96863.47;5017108;28;20033;-50
2021/11/28 00:36:07;;;;;;;11.73;6.45;;;;;;;5.26;72.93;96864.66;5034715;28;20498;-50
2021/11/28 00:38:33;;;;;;;21.67;13.13;;;;;;;5.27;72.66;96871.47;5034597;28;20030;-47
2021/11/28 00:40:59;;;;;;;15.18;6.93;;;;;;;5.29;73.31;96866.03;5034548;28;20509;-48
2021/11/28 00:43:25;;;;;;;9.70;6.43;;;;;;;5.22;72.87;96871.28;5034457;28;20044;-48
2021/11/28 00:45:50;;;;;;;26.90;16.48;;;;;;;5.15;72.85;96871.34;5034533;28;20100;-47
2021/11/28 00:48:16;;;;;;;11.80;6.45;;;;;;;5.22;73.19;96866.06;5034525;28;20057;-47
2021/11/28 00:50:45;;;;;;;15.50;6.05;;;;;;;5.32;73.37;96860.41;5034522;28;20021;-47
2021/11/28 00:53:17;;;;;;;13.45;5.88;;;;;;;5.47;73.37;96867.88;5034491;28;20564;-47
2021/11/28 00:55:43;;;;;;;11.52;5.35;;;;;;;5.54;73.15;96860.84;5034342;28;20521;-48
2021/11/28 00:58:09;;;;;;;11.35;5.57;;;;;;;5.54;73.01;96855.63;5034163;28;20088;-47
2021/11/28 01:00:35;;;;;;;7.03;4.28;;;;;;;5.60;72.84;96852.19;5034340;28;20013;-48
2021/11/28 01:03:01;;;;;;;6.95;3.60;;;;;;;5.64;72.52;96852.56;5016511;28;20065;-46
2021/11/28 01:05:27;;;;;;;10.27;4.43;;;;;;;5.68;72.43;96846.69;5033346;28;20068;-46
2021/11/28 01:07:53;;;;;;;6.15;3.67;;;;;;;5.74;71.66;96847.66;5034095;28;20113;-48
2021/11/28 01:10:19;;;;;;;8.00;4.70;;;;;;;5.58;70.31;96857.59;5034126;28;20446;-47
2021/11/28 01:12:45;;;;;;;8.48;5.30;;;;;;;5.27;70.08;96853.25;5016299;28;20029;-48
2021/11/28 01:15:12;;;;;;;12.98;8.35;;;;;;;5.02;70.73;96852.41;5034001;28;20025;-47
2021/11/28 01:17:38;;;;;;;10.90;6.47;;;;;;;4.91;70.41;96857.28;5033966;28;20072;-47
2021/11/28 01:20:06;;;;;;;13.18;6.50;;;;;;;4.82;70.41;96861.13;5033967;28;20047;-47
2021/11/28 01:22:32;;;;;;;11.57;8.00;;;;;;;4.60;70.26;96858.81;5033877;28;20025;-48
2021/11/28 01:24:58;;;;;;;15.65;9.90;;;;;;;4.39;70.60;96870.31;5033895;28;20024;-48
2021/11/28 01:27:24;;;;;;;7.13;4.28;;;;;;;4.30;70.88;96865.56;5015983;28;20460;-47
2021/11/28 01:29:50;;;;;;;9.13;4.60;;;;;;;4.15;70.49;96866.59;5033807;28;20056;-47
2021/11/28 01:32:17;;;;;;;4.22;3.30;;;;;;;4.03;70.87;96872.63;5033451;28;20518;-48
2021/11/28 01:34:43;;;;;;;14.27;5.93;;;;;;;4.04;71.46;96869.81;5033687;28;20376;-48
2021/11/28 01:37:09;;;;;;;10.40;6.03;;;;;;;4.06;71.10;96869.63;5033560;28;20028;-47
2021/11/28 01:39:35;;;;;;;12.18;4.63;;;;;;;4.12;71.20;96882.56;5033509;28;20188;-48
2021/11/28 01:42:02;;;;;;;6.82;4.30;;;;;;;4.29;71.66;96895.13;5033803;28;20036;-47
2021/11/28 01:44:28;;;;;;;9.90;6.60;;;;;;;4.46;71.30;96893.66;5033539;28;20087;-48
2021/11/28 01:46:55;;;;;;;14.10;7.05;;;;;;;4.54;70.60;96883.03;5033439;28;20030;-48
2021/11/28 01:49:22;;;;;;;10.82;4.43;;;;;;;4.62;71.12;96889.81;5033368;28;20037;-47
2021/11/28 01:51:50;;;;;;;8.88;5.30;;;;;;;4.85;70.37;96888.50;5033365;28;20503;-47
2021/11/28 01:54:17;;;;;;;6.35;3.55;;;;;;;4.94;69.03;96892.44;5033323;28;20068;-48
2021/11/28 01:56:47;;;;;;;6.07;3.70;;;;;;;4.86;69.62;96887.50;5033398;28;20017;-48
2021/11/28 01:59:14;;;;;;;9.38;3.80;;;;;;;4.88;69.58;96885.50;5033251;28;20037;-47
2021/11/28 02:01:40;;;;;;;7.78;3.58;;;;;;;4.88;69.09;96891.47;5033197;28;20104;-49
2021/11/28 02:04:09;;;;;;;11.88;4.50;;;;;;;4.96;69.64;96888.63;5015393;28;20164;-49
2021/11/28 02:06:35;;;;;;;13.18;5.22;;;;;;;5.06;68.89;96888.19;5032860;28;20522;-48
2021/11/28 02:09:04;;;;;;;5.05;3.20;;;;;;;5.05;68.62;96890.97;5033069;28;20517;-47
2021/11/28 02:11:30;;;;;;;7.95;3.15;;;;;;;5.16;69.33;96893.72;5032938;28;20100;-48
2021/11/28 02:13:56;;;;;;;9.27;2.95;;;;;;;5.29;68.16;96905.84;5032912;28;20033;-47
2021/11/28 02:16:22;;;;;;;6.53;3.60;;;;;;;5.38;68.27;96906.38;5031900;28;20511;-48
2021/11/28 02:18:50;;;;;;;8.75;3.72;;;;;;;5.48;67.61;96908.53;5032816;28;20032;-48
2021/11/28 02:21:16;;;;;;;5.78;3.75;;;;;;;5.49;67.70;96902.28;5032809;28;20104;-47
2021/11/28 02:23:43;;;;;;;8.40;3.50;;;;;;;5.48;67.74;96905.91;5032750;28;20025;-47
2021/11/28 02:26:15;;;;;;;5.43;3.13;;;;;;;5.55;67.35;96902.25;5032629;28;20025;-49
2021/11/28 02:28:43;;;;;;;8.32;3.00;;;;;;;5.62;67.26;96901.41;5032549;28;20029;-48
2021/11/28 02:31:11;;;;;;;5.35;3.30;;;;;;;5.70;67.17;96901.94;5032115;28;20577;-47
2021/11/28 02:33:37;;;;;;;9.55;4.70;;;;;;;5.67;66.91;96902.34;5032584;28;20068;-48
2021/11/28 02:36:04;;;;;;;10.77;4.55;;;;;;;5.65;66.24;96906.97;5032536;28;20033;-47
2021/11/28 02:38:30;;;;;;;7.03;4.22;;;;;;;5.63;66.29;96905.59;5032377;28;20096;-48
2021/11/28 02:40:56;;;;;;;5.53;3.67;;;;;;;5.66;66.95;96911.19;5032395;28;20116;-49
2021/11/28 02:43:23;;;;;;;5.57;3.28;;;;;;;5.69;66.64;96910.72;5032451;28;20581;-48
2021/11/28 02:45:49;;;;;;;12.63;4.70;;;;;;;5.66;66.02;96902.56;5032600;28;20517;-47
2021/11/28 02:48:16;;;;;;;10.38;4.63;;;;;;;5.67;66.72;96907.56;5032317;28;20025;-47
2021/11/28 02:50:44;;;;;;;8.00;5.10;;;;;;;5.69;66.47;96905.53;5032522;28;20447;-49
2021/11/28 02:53:11;;;;;;;15.13;6.13;;;;;;;5.75;66.19;96907.28;5032273;28;20022;-47
2021/11/28 02:55:44;;;;;;;9.95;5.57;;;;;;;5.85;66.74;96909.41;5014418;28;20406;-49
2021/11/28 02:58:12;;;;;;;8.77;3.97;;;;;;;5.94;65.82;96907.34;5014312;28;20113;-49
2021/11/28 03:00:44;;;;;;;11.43;5.60;;;;;;;5.94;65.76;96899.53;5032080;28;20028;-48
2021/11/28 03:03:10;;;;;;;11.98;4.97;;;;;;;5.96;65.49;96910.56;5032115;28;20115;-48
2021/11/28 03:05:36;;;;;;;9.50;5.43;;;;;;;6.02;65.82;96906.28;5032046;28;20061;-48
2021/11/28 03:08:02;;;;;;;7.20;3.08;;;;;;;6.08;65.71;96905.44;5032042;28;20021;-48
2021/11/28 03:10:41;;;;;;;8.52;3.45;;;;;;;6.07;65.44;96909.84;5014229;28;20116;-49
2021/11/28 03:13:31;;;;;;;5.50;2.75;;;;;;;6.08;65.17;96897.63;5031991;28;20057;-48
2021/11/28 03:16:00;;;;;;;4.93;2.60;;;;;;;6.14;64.52;96900.16;5031916;28;20037;-47
2021/11/28 03:18:28;;;;;;;7.45;3.30;;;;;;;6.17;64.79;96904.91;5031795;28;20021;-48
2021/11/28 03:20:57;;;;;;;5.25;3.20;;;;;;;6.13;64.90;96895.94;5031757;28;20028;-48
2021/11/28 03:23:28;;;;;;;6.50;2.85;;;;;;;6.06;64.54;96900.44;5031832;28;20022;-48
2021/11/28 03:26:04;;;;;;;5.25;2.90;;;;;;;6.03;64.52;96900.88;5031816;28;20033;-48
2021/11/28 03:28:30;;;;;;;5.30;3.80;;;;;;;5.94;64.52;96896.94;5031446;28;20036;-49
2021/11/28 03:30:56;;;;;;;4.97;3.03;;;;;;;5.90;64.20;96891.34;5031651;28;20041;-48
2021/11/28 03:33:22;;;;;;;5.97;3.13;;;;;;;5.89;64.71;96896.75;5013787;28;20053;-47
2021/11/28 03:35:50;;;;;;;4.95;2.80;;;;;;;5.92;64.88;96891.13;5031720;28;20021;-49
2021/11/28 03:38:16;;;;;;;5.57;2.83;;;;;;;5.98;64.83;96901.50;5031495;28;20022;-49
2021/11/28 03:40:42;;;;;;;10.65;2.90;;;;;;;5.95;64.14;96898.53;5031630;28;20028;-48
2021/11/28 03:43:09;;;;;;;10.00;3.20;;;;;;;5.89;63.99;96894.94;5031601;28;20034;-48
2021/11/28 03:45:35;;;;;;;3.22;2.40;;;;;;;5.75;63.62;96896.09;5031529;28;20495;-47
2021/11/28 03:48:01;;;;;;;4.90;2.88;;;;;;;5.56;64.21;96903.06;5031617;28;20056;-47
2021/11/28 03:50:28;;;;;;;4.43;2.25;;;;;;;5.38;64.27;96899.38;5031437;28;20073;-47
2021/11/28 03:52:54;;;;;;;4.03;2.15;;;;;;;5.28;64.49;96893.84;5031523;28;20032;-47
2021/11/28 03:55:22;;;;;;;4.22;2.47;;;;;;;5.22;64.77;96894.69;5031402;28;20021;-49
2021/11/28 03:57:48;;;;;;;3.38;2.40;;;;;;;5.23;65.07;96898.88;5031184;28;20029;-48
2021/11/28 04:00:15;;;;;;;3.72;2.50;;;;;;;5.21;64.94;96887.88;5031375;28;20018;-48
2021/11/28 04:02:41;;;;;;;5.50;2.88;;;;;;;5.20;65.04;96884.47;5031449;28;20021;-48
2021/11/28 04:05:09;;;;;;;6.70;2.45;;;;;;;5.25;65.61;96894.28;5031362;28;20026;-47
2021/11/28 04:07:35;;;;;;;5.85;2.47;;;;;;;5.28;65.05;96888.63;5031673;28;20017;-47
2021/11/28 04:10:01;;;;;;;5.78;2.97;;;;;;;5.22;65.08;96891.28;5031298;28;20495;-47
2021/11/28 04:12:27;;;;;;;3.85;2.50;;;;;;;5.22;65.22;96888.69;5031362;28;20021;-48
2021/11/28 04:14:57;;;;;;;8.90;4.47;;;;;;;5.27;65.95;96889.66;5031327;28;20022;-47
2021/11/28 04:17:24;;;;;;;20.77;5.78;;;;;;;5.32;65.65;96889.81;5031630;28;20025;-47
2021/11/28 04:19:51;;;;;;;10.52;5.15;;;;;;;5.32;66.70;96892.41;5029917;28;20100;-47
2021/11/28 04:22:17;;;;;;;9.27;5.60;;;;;;;5.36;66.44;96895.38;5031218;28;20045;-48
2021/11/28 04:24:43;;;;;;;8.52;4.72;;;;;;;5.39;66.76;96894.97;5031270;28;20076;-48
2021/11/28 04:27:09;;;;;;;9.48;5.88;;;;;;;5.35;66.59;96891.19;5013449;28;20022;-48
2021/11/28 04:29:35;;;;;;;6.70;4.80;;;;;;;5.26;67.46;96890.66;5031214;28;20056;-47
2021/11/28 04:32:01;;;;;;;9.85;4.72;;;;;;;5.14;67.91;96892.34;5030924;28;20034;-47
2021/11/28 04:34:27;;;;;;;9.48;3.63;;;;;;;5.01;68.27;96895.81;5031138;28;20019;-47
2021/11/28 04:36:53;;;;;;;7.00;3.38;;;;;;;4.96;68.88;96896.44;5031110;28;20026;-48
2021/11/28 04:39:19;;;;;;;8.48;4.68;;;;;;;4.95;68.87;96886.22;5031265;28;20018;-48
2021/11/28 04:41:45;;;;;;;6.57;3.67;;;;;;;5.03;69.34;96887.78;5034713;28;20033;-48
2021/11/28 04:44:11;;;;;;;5.63;3.70;;;;;;;5.04;69.09;96881.59;5034612;28;20028;-49
2021/11/28 04:46:37;;;;;;;5.97;3.90;;;;;;;5.04;68.75;96887.59;5016773;28;20108;-48
2021/11/28 04:49:03;;;;;;;11.18;5.10;;;;;;;4.97;69.07;96874.63;5034612;28;20026;-47
2021/11/28 04:51:30;;;;;;;11.48;5.28;;;;;;;4.94;69.81;96879.44;5034494;28;20136;-48
2021/11/28 04:53:57;;;;;;;9.30;4.63;;;;;;;4.88;69.91;96877.69;5034519;28;20406;-47
2021/11/28 04:56:25;;;;;;;9.30;4.07;;;;;;;4.85;70.26;96875.50;5034400;28;20017;-48
2021/11/28 04:58:51;;;;;;;7.07;3.90;;;;;;;4.77;70.60;96874.75;5034354;28;20022;-47
2021/11/28 05:01:17;;;;;;;8.88;4.90;;;;;;;4.68;71.05;96880.38;5034280;28;20509;-47
2021/11/28 05:03:42;;;;;;;8.73;5.03;;;;;;;4.55;71.47;96882.03;5034336;28;20025;-48
2021/11/28 05:06:08;;;;;;;9.13;5.20;;;;;;;4.46;72.14;96879.88;5034277;28;20082;-46
2021/11/28 05:08:35;;;;;;;7.13;4.65;;;;;;;4.46;73.23;96888.47;5034215;28;20060;-47
2021/11/28 05:11:00;;;;;;;6.82;4.47;;;;;;;4.45;72.93;96881.69;5034188;28;20038;-47
2021/11/28 05:13:26;;;;;;;11.38;4.38;;;;;;;4.46;73.38;96890.25;5034063;28;20515;-47
2021/11/28 05:15:52;;;;;;;5.10;3.92;;;;;;;4.42;73.12;96891.69;5033970;28;20108;-47
2021/11/28 05:18:18;;;;;;;8.10;3.80;;;;;;;4.40;73.27;96881.50;5034196;28;20112;-46
2021/11/28 05:20:46;;;;;;;5.32;3.65;;;;;;;4.39;73.13;96887.69;5016125;28;20035;-47
2021/11/28 05:23:13;;;;;;;11.40;4.68;;;;;;;4.33;73.47;96891.91;5033932;28;20026;-48
2021/11/28 05:25:39;;;;;;;7.07;4.35;;;;;;;4.38;73.99;96896.47;5034073;28;20021;-48
2021/11/28 05:28:08;;;;;;;6.93;5.32;;;;;;;4.45;73.94;96892.06;5033827;28;20092;-47
2021/11/28 05:30:35;;;;;;;7.78;3.60;;;;;;;4.50;73.61;96902.63;5033780;28;20037;-47
2021/11/28 05:33:01;;;;;;;6.90;4.05;;;;;;;4.50;73.44;96900.03;5033586;28;20081;-46
2021/11/28 05:35:28;;;;;;;5.35;3.05;;;;;;;4.36;73.16;96904.47;5033654;28;20022;-46
2021/11/28 05:37:54;;;;;;;4.85;3.28;;;;;;;4.36;73.97;96898.50;5033610;28;20036;-47
2021/11/28 05:40:20;;;;;;;9.38;4.28;;;;;;;4.39;74.06;96903.28;5033577;28;20026;-47
2021/11/28 05:42:49;;;;;;;10.30;4.07;;;;;;;4.36;73.78;96901.09;5033576;28;20384;-46
2021/11/28 05:45:16;;;;;;;10.18;4.15;;;;;;;4.39;74.26;96904.06;5033760;28;20403;-47
2021/11/28 05:47:42;;;;;;;8.52;2.70;;;;;;;4.35;73.99;96908.09;5033534;28;20029;-46
2021/11/28 05:50:09;;;;;;;7.63;3.50;;;;;;;4.30;74.04;96909.69;5033289;28;20048;-47
2021/11/28 05:52:36;;;;;;;4.00;3.38;;;;;;;4.27;74.47;96907.53;5033356;28;20113;-47
2021/11/28 05:55:03;;;;;;;12.95;3.55;;;;;;;4.29;75.06;96908.91;5033257;28;20093;-46
2021/11/28 05:57:29;;;;;;;6.57;3.83;;;;;;;4.30;74.74;96915.69;5031853;28;20076;-47
2021/11/28 05:59:55;;;;;;;4.93;3.60;;;;;;;4.22;74.51;96918.50;5015447;28;20020;-47
2021/11/28 06:02:21;;;;;;;5.43;3.58;;;;;;;4.05;74.62;96915.53;5015616;28;20029;-47
2021/11/28 06:04:46;;;;;;;12.55;4.20;;;;;;;3.87;74.64;96917.97;5033040;28;20026;-47
2021/11/28 06:07:12;;;;;;;4.55;3.58;;;;;;;3.76;75.60;96920.19;5015309;28;20049;-46
2021/11/28 06:09:38;;;;;;;5.63;3.95;;;;;;;3.72;75.67;96925.94;5033036;28;20057;-46
2021/11/28 06:12:04;;;;;;;6.68;4.07;;;;;;;3.73;75.65;96920.56;5033002;28;20025;-48
2021/11/28 06:14:30;;;;;;;6.68;4.20;;;;;;;3.72;75.66;96925.94;5032941;28;20491;-47
2021/11/28 06:16:55;;;;;;;6.90;3.60;;;;;;;3.67;76.01;96921.34;5015150;28;20026;-48
2021/11/28 06:19:21;;;;;;;6.97;4.30;;;;;;;3.59;76.23;96922.34;5033031;28;20021;-47
2021/11/28 06:21:47;;;;;;;6.82;4.88;;;;;;;3.58;76.18;96922.53;5032785;28;20022;-47
2021/11/28 06:24:14;;;;;;;15.27;4.85;;;;;;;3.51;75.98;96921.75;5014982;28;20399;-47
2021/11/28 06:26:40;;;;;;;8.63;4.35;;;;;;;3.39;75.47;96918.94;5014935;28;20032;-49
2021/11/28 06:29:05;;;;;;;4.78;4.28;;;;;;;3.31;75.90;96919.16;5014821;28;20069;-48
2021/11/28 06:31:31;;;;;;;9.15;5.85;;;;;;;3.26;76.11;96930.13;5014590;28;20050;-48
2021/11/28 06:33:57;;;;;;;8.85;6.18;;;;;;;3.15;76.24;96921.09;5014898;28;20391;-48
2021/11/28 06:36:23;;;;;;;9.40;7.20;;;;;;;3.14;77.28;96926.47;5014811;28;20029;-48
2021/11/28 06:38:49;;;;;;;29.38;7.38;;;;;;;3.23;77.52;96927.91;5014706;28;20112;-48
2021/11/28 06:41:15;;;;;;;20.25;6.30;;;;;;;3.15;77.53;96928.09;5032351;28;20113;-48
2021/11/28 06:43:40;;;;;;;9.55;7.80;;;;;;;3.13;78.27;96930.88;5032474;28;20021;-49
2021/11/28 06:46:06;;;;;;;19.90;8.75;;;;;;;3.25;78.75;96925.91;5014716;28;20506;-48
2021/11/28 06:48:32;;;;;;;54.38;8.77;;;;;;;3.35;78.81;96931.50;5014639;28;20099;-48
2021/11/28 06:50:57;;;;;;;45.10;7.75;;;;;;;3.48;78.56;96930.75;5014597;28;20121;-48
2021/11/28 06:53:23;;;;;;;10.23;5.75;;;;;;;3.47;77.87;96941.31;5014562;28;20399;-48
2021/11/28 06:55:49;;;;;;;15.73;7.43;;;;;;;3.44;78.13;96939.09;5014502;28;20027;-48
2021/11/28 06:58:15;;;;;;;7.70;5.60;;;;;;;3.57;78.15;96937.31;5032171;28;20026;-48
2021/11/28 07:00:41;;;;;;;31.73;14.35;;;;;;;3.62;77.63;96935.91;5014344;28;20040;-48
2021/11/28 07:03:07;;;;;;;24.75;8.35;;;;;;;3.71;78.96;96938.13;5031611;28;20053;-48
2021/11/28 07:05:33;;;;;;;42.88;30.73;;;;;;;3.79;78.74;96945.69;5014284;28;20108;-49
2021/11/28 07:07:58;;;;;;;23.05;11.32;;;;;;;3.98;78.91;96941.50;5032074;28;20026;-47
2021/11/28 07:10:24;;;;;;;11.77;7.47;;;;;;;3.94;78.09;96944.69;5030716;28;20022;-49
2021/11/28 07:12:50;;;;;;;17.15;5.32;;;;;;;3.79;77.83;96950.88;5014170;28;20021;-49
2021/11/28 07:15:16;;;;;;;17.88;8.23;;;;;;;3.39;77.50;96960.44;5031894;28;20033;-49
2021/11/28 07:17:42;;;;;;;9.95;7.47;;;;;;;3.32;78.57;96957.84;5014096;28;20030;-48
2021/11/28 07:20:08;;;;;;;9.32;7.32;;;;;;;3.21;77.40;96955.81;5013967;28;20030;-49
2021/11/28 07:22:34;;;;;;;13.52;8.32;;;;;;;3.10;78.00;96957.19;5014082;28;20027;-48
2021/11/28 07:25:00;;;;;;;18.63;8.60;;;;;;;3.06;78.29;96955.16;5014119;28;20030;-48
2021/11/28 07:27:26;;;;;;;31.00;7.90;;;;;;;3.23;79.19;96961.59;5014070;28;20029;-49
2021/11/28 07:29:55;;;;;;;305.27;20.73;;;;;;;3.33;78.99;96961.22;5031714;28;20041;-48
2021/11/28 07:32:21;;;;;;;17.85;9.15;;;;;;;3.40;78.98;96969.81;5031513;28;20411;-49
2021/11/28 07:34:47;;;;;;;16.55;8.98;;;;;;;3.54;79.16;96968.84;5031724;28;20018;-49
2021/11/28 07:37:12;;;;;;;11.30;6.95;;;;;;;3.68;79.52;96968.84;5013801;28;20032;-51
2021/11/28 07:39:38;;;;;;;25.05;7.95;;;;;;;3.85;79.63;96966.66;5013828;28;20084;-49
2021/11/28 07:42:04;;;;;;;9.35;7.45;;;;;;;3.76;77.83;96974.66;5031616;28;20513;-48
2021/11/28 07:44:30;;;;;;;10.98;7.60;;;;;;;3.25;75.94;96979.56;5013874;28;20028;-48
2021/11/28 07:46:56;;;;;;;131.75;67.78;;;;;;;2.78;76.25;96984.59;5013796;28;20025;-49
2021/11/28 07:49:22;;;;;;;58.22;37.78;;;;;;;2.48;76.57;96984.81;5013842;28;20095;-48
2021/11/28 07:51:48;;;;;;;385.00;239.63;;;;;;;2.36;77.34;96991.53;5031498;28;20395;-48
2021/11/28 07:54:14;;;;;;;65.13;39.55;;;;;;;2.47;78.08;96996.16;5031564;28;20020;-48
2021/11/28 07:56:40;;;;;;;155.98;23.90;;;;;;;2.57;78.51;96991.44;5013740;28;20041;-48
2021/11/28 07:59:06;;;;;;;236.75;28.40;;;;;;;2.66;79.29;96991.31;5013636;28;20030;-48
2021/11/28 08:01:31;;;;;;;529.88;35.67;;;;;;;2.88;79.59;96990.19;5013767;28;20026;-48
2021/11/28 08:03:57;;;;;;;58.65;12.70;;;;;;;2.97;79.58;96993.41;5031445;28;20032;-48
2021/11/28 08:06:23;;;;;;;47.33;11.98;;;;;;;3.10;79.85;96997.84;5031396;28;20131;-48
2021/11/28 08:08:49;;;;;;;18.98;10.57;;;;;;;3.24;80.15;96993.50;5013605;28;20503;-48
2021/11/28 08:11:15;;;;;;;91.10;14.75;;;;;;;3.40;80.40;96983.59;5031286;28;20117;-47
2021/11/28 08:13:41;;;;;;;36.30;12.80;;;;;;;3.52;80.41;96989.00;5014920;28;20402;-47
2021/11/28 08:16:06;;;;;;;18.73;9.18;;;;;;;3.65;80.06;96996.00;5017303;28;20025;-47
2021/11/28 08:18:32;;;;;;;30.27;7.30;;;;;;;3.73;80.42;96993.19;5035116;28;20013;-47
2021/11/28 08:20:58;;;;;;;11.20;8.68;;;;;;;3.80;79.75;97000.97;5017265;28;20037;-48
2021/11/28 08:23:25;;;;;;;16.25;7.40;;;;;;;3.90;80.00;97001.38;5017363;28;20100;-48
2021/11/28 08:25:51;;;;;;;9.73;6.68;;;;;;;4.00;79.82;97001.81;5035283;28;20064;-47
2021/11/28 08:28:17;;;;;;;14.30;8.38;;;;;;;4.06;79.64;97002.78;5017191;28;20030;-47
2021/11/28 08:30:43;;;;;;;14.57;7.15;;;;;;;4.14;79.44;97010.38;5017180;28;20598;-48
2021/11/28 08:33:09;;;;;;;9.55;6.78;;;;;;;4.12;79.60;97009.78;5046726;28;20033;-46
2021/11/28 08:35:35;;;;;;;7.53;5.63;;;;;;;4.19;79.77;97009.78;5036880;28;20041;-48
2021/11/28 08:38:02;;;;;;;9.45;6.18;;;;;;;4.17;79.24;97019.56;5036785;28;20081;-48
2021/11/28 08:40:28;;;;;;;13.48;7.82;;;;;;;4.07;78.66;97019.19;5054687;28;20062;-48
2021/11/28 08:42:55;;;;;;;63.30;9.30;;;;;;;3.98;78.53;97024.56;5036735;28;20108;-48
2021/11/28 08:45:20;;;;;;;11.00;6.53;;;;;;;4.00;79.20;97024.34;5054604;28;20418;-48
2021/11/28 08:47:47;;;;;;;10.55;6.88;;;;;;;3.92;79.20;97027.94;5054546;28;20029;-48
2021/11/28 08:50:15;;;;;;;12.95;7.38;;;;;;;3.88;78.68;97026.72;5053175;28;20032;-48
2021/11/28 08:52:44;;;;;;;12.88;7.20;;;;;;;3.86;78.58;97026.13;5036597;28;20025;-48
2021/11/28 08:55:11;;;;;;;9.50;6.82;;;;;;;3.95;79.41;97034.53;5054409;28;20021;-49
2021/11/28 08:57:37;;;;;;;7.50;4.85;;;;;;;4.05;79.66;97034.94;5054324;28;20053;-49
2021/11/28 09:00:05;;;;;;;12.27;5.85;;;;;;;4.13;79.21;97036.56;5054241;28;20462;-48
2021/11/28 09:02:30;;;;;;;11.63;6.43;;;;;;;4.18;79.37;97040.13;5036727;28;20021;-48
2021/11/28 09:04:56;;;;;;;15.70;5.60;;;;;;;4.27;79.66;97039.94;5036278;28;20029;-49
2021/11/28 09:07:22;;;;;;;11.45;6.40;;;;;;;4.33;79.50;97031.34;5054243;28;20100;-48
2021/11/28 09:09:47;;;;;;;9.40;5.03;;;;;;;4.43;79.77;97039.53;5036240;28;20503;-49
2021/11/28 09:12:13;;;;;;;15.40;7.60;;;;;;;4.52;79.93;97047.91;5036147;28;20021;-48
2021/11/28 09:14:39;;;;;;;15.43;7.53;;;;;;;4.67;80.31;97047.66;5054098;28;20125;-48
2021/11/28 09:17:04;;;;;;;9.18;6.35;;;;;;;4.84;81.01;97043.63;5053898;28;20025;-48
2021/11/28 09:20:13;;;;;;;13.73;6.25;;;;;;;5.02;80.37;97047.41;5035999;28;20068;-48
2021/11/28 09:25:03;;;;;;;8.38;4.78;;;;;;;5.27;80.38;97045.72;5053520;28;20059;-48
2021/11/28 09:27:29;;;;;;;12.15;5.40;;;;;;;5.29;80.36;97059.31;5035803;28;20471;-49
2021/11/28 09:29:55;;;;;;;15.23;5.50;;;;;;;5.39;80.42;97053.63;5053806;28;20033;-49
2021/11/28 09:32:21;;;;;;;9.95;5.13;;;;;;;5.48;80.50;97059.41;5053439;28;20484;-49
2021/11/28 09:34:47;;;;;;;5.82;3.80;;;;;;;5.53;80.48;97064.78;5035808;28;20025;-49
2021/11/28 09:37:13;;;;;;;4.40;3.60;;;;;;;5.40;79.03;97057.84;5053631;28;20023;-49
2021/11/28 09:39:43;;;;;;;9.48;4.13;;;;;;;5.31;79.25;97065.09;5053519;28;20032;-48
2021/11/28 09:42:12;;;;;;;6.35;2.92;;;;;;;5.32;79.79;97066.69;5035651;28;20110;-49
2021/11/28 09:44:41;;;;;;;5.95;3.63;;;;;;;5.37;79.66;97069.47;5035610;28;20021;-49
2021/11/28 09:47:10;;;;;;;71.43;44.10;;;;;;;5.46;79.78;97070.03;5035435;28;20517;-49
2021/11/28 09:49:37;;;;;;;6.20;3.63;;;;;;;5.49;79.04;97074.81;5035494;28;20036;-49
2021/11/28 09:52:07;;;;;;;12.20;3.90;;;;;;;5.47;79.70;97076.03;5035481;28;20021;-48
2021/11/28 09:54:38;;;;;;;6.07;3.70;;;;;;;5.42;79.12;97081.06;5035250;28;20029;-49
2021/11/28 09:57:04;;;;;;;4.68;3.55;;;;;;;5.34;79.47;97071.69;5035366;28;20035;-49
2021/11/28 09:59:31;;;;;;;10.68;3.50;;;;;;;5.22;79.02;97076.72;5053152;28;20099;-49
2021/11/28 10:01:57;;;;;;;24.05;10.45;;;;;;;4.99;77.85;97075.41;5035258;28;20490;-50
2021/11/28 10:04:23;;;;;;;9.65;3.60;;;;;;;4.78;77.19;97083.44;5053144;28;20051;-49
2021/11/28 10:06:49;;;;;;;7.68;2.65;;;;;;;4.58;78.01;97086.84;5035177;28;20490;-48
2021/11/28 10:09:16;;;;;;;6.45;3.58;;;;;;;4.42;78.08;97083.88;5035136;28;20033;-49
2021/11/28 10:11:41;;;;;;;7.05;3.40;;;;;;;4.28;77.55;97093.47;5035149;28;20029;-49
2021/11/28 10:14:13;;;;;;;12.57;8.05;;;;;;;4.06;76.76;97087.66;5034970;28;20021;-49
2021/11/28 10:16:39;;;;;;;16.77;6.75;;;;;;;3.96;76.90;97072.47;5035048;28;20029;-48
2021/11/28 10:19:07;;;;;;;5.90;4.40;;;;;;;3.80;76.30;97079.63;5034828;28;20513;-48
2021/11/28 10:21:33;;;;;;;6.05;3.80;;;;;;;3.68;76.51;97083.00;5052700;28;20021;-47
2021/11/28 10:24:08;;;;;;;8.52;3.38;;;;;;;3.54;76.38;97085.56;5034805;28;20032;-47
2021/11/28 10:26:38;;;;;;;8.90;2.77;;;;;;;3.50;76.99;97075.75;5034781;28;20021;-48
2021/11/28 10:29:09;;;;;;;7.30;2.42;;;;;;;3.45;77.15;97072.97;5052569;28;20025;-48
2021/11/28 10:32:02;;;;;;;6.10;2.60;;;;;;;3.55;78.83;97075.97;5052550;28;20230;-48
2021/11/28 10:34:33;;;;;;;5.20;2.72;;;;;;;3.82;79.90;97065.66;5032805;28;20426;-47
2021/11/28 10:37:15;;;;;;;11.88;3.30;;;;;;;4.07;80.59;97066.69;5034192;28;20458;-48
2021/11/28 10:39:44;;;;;;;268.40;175.32;;;;;;;4.25;81.34;97073.91;5026958;28;20082;-48
2021/11/28 10:42:18;;;;;;;15.35;8.38;;;;;;;4.51;82.09;97073.09;5034525;28;20017;-48
2021/11/28 10:45:06;;;;;;;8.93;4.20;;;;;;;4.75;82.24;97066.47;5052469;28;20487;-48
2021/11/28 10:47:36;;;;;;;12.90;4.32;;;;;;;4.95;81.97;97063.81;5034442;28;20020;-48
2021/11/28 10:50:22;;;;;;;16.52;3.60;;;;;;;5.08;81.43;97057.75;5034388;28;20025;-48
2021/11/28 10:53:01;;;;;;;8.20;4.35;;;;;;;5.16;81.00;97054.16;5052277;28;20403;-48
2021/11/28 10:55:33;;;;;;;6.80;4.20;;;;;;;5.25;80.42;97063.31;5052081;28;20112;-48
2021/11/28 10:58:06;;;;;;;12.18;7.25;;;;;;;5.29;80.41;97054.09;5034206;28;20036;-48
2021/11/28 11:00:34;;;;;;;21.83;11.15;;;;;;;5.32;80.25;97052.88;5052078;28;20104;-48
2021/11/28 11:03:19;;;;;;;11.18;5.13;;;;;;;5.30;80.03;97053.09;5052109;28;20017;-47
2021/11/28 11:05:48;;;;;;;11.35;7.20;;;;;;;5.38;80.31;97050.25;5052263;28;20051;-48
2021/11/28 11:08:17;;;;;;;11.82;6.00;;;;;;;5.50;79.78;97050.38;5033977;28;20055;-50
2021/11/28 11:10:51;;;;;;;14.18;5.32;;;;;;;5.59;79.64;97054.34;5051810;28;20402;-48
2021/11/28 11:13:19;;;;;;;9.23;5.72;;;;;;;5.72;79.62;97052.69;5051985;28;20494;-47
2021/11/28 11:15:51;;;;;;;7.50;4.88;;;;;;;5.87;79.94;97044.56;5034014;28;20025;-48
2021/11/28 11:18:23;;;;;;;7.03;4.30;;;;;;;6.03;80.01;97046.69;5033768;28;20036;-48
2021/11/28 11:21:02;;;;;;;10.13;4.78;;;;;;;6.20;79.34;97044.38;5033875;28;20506;-49
2021/11/28 11:23:45;;;;;;;13.43;5.80;;;;;;;6.26;79.44;97046.13;5033922;28;20400;-51
2021/11/28 11:26:22;;;;;;;18.38;4.50;;;;;;;6.30;78.75;97038.66;5051772;28;20028;-49
2021/11/28 11:29:06;;;;;;;5.35;3.55;;;;;;;6.27;78.60;97037.28;5050412;28;20116;-49
2021/11/28 11:31:32;;;;;;;8.07;3.70;;;;;;;6.34;78.06;97040.66;5051487;28;20494;-48
2021/11/28 11:33:58;;;;;;;8.95;3.88;;;;;;;6.31;78.36;97040.28;5016752;28;20523;-49
2021/11/28 11:36:54;;;;;;;14.35;5.40;;;;;;;6.24;78.77;97037.72;5031753;28;20025;-49
2021/11/28 11:39:21;;;;;;;11.38;5.07;;;;;;;6.19;77.88;97040.16;5031625;28;20033;-48
2021/11/28 11:41:47;;;;;;;6.53;3.97;;;;;;;6.19;78.29;97045.38;5013873;28;20025;-48
2021/11/28 11:44:16;;;;;;;7.32;4.57;;;;;;;6.19;78.73;97042.75;5031695;28;20032;-48